Time;durP1;ratioP1;P1;durP2;ratioP2;P2;SDS_P1;SDS_P2;PMS_P1;PMS_P2;Temp;Humidity;BMP_temperature;BMP_pressure;BME280_temperature;BME280_humidity;BME280_pressure;Samples;Min_cycle;Max_cycle;Signal;HPM_P1;HPM_P2
2021/11/02 00:01:18;;;;;;;7.67;2.27;;;9.80;99.90;;;;;;5030511;28;20053;-85
2021/11/02 00:03:44;;;;;;;9.10;2.10;;;9.80;99.90;;;;;;5031077;28;20037;-84
2021/11/02 00:06:10;;;;;;;7.03;2.23;;;9.80;99.90;;;;;;5030910;28;20032;-83
2021/11/02 00:08:36;;;;;;;8.23;1.83;;;9.70;99.90;;;;;;5031019;28;20037;-83
2021/11/02 00:11:03;;;;;;;12.33;2.50;;;9.80;99.90;;;;;;5013389;28;20040;-84
2021/11/02 00:13:32;;;;;;;6.50;2.03;;;9.80;99.90;;;;;;5030767;28;20029;-84
2021/11/02 00:16:02;;;;;;;5.33;1.73;;;9.60;99.90;;;;;;5014210;28;20030;-83
2021/11/02 00:18:29;;;;;;;9.27;2.47;;;9.60;99.90;;;;;;5030744;28;20053;-84
2021/11/02 00:21:02;;;;;;;6.63;2.10;;;9.60;99.90;;;;;;5029881;28;20107;-84
2021/11/02 00:23:35;;;;;;;11.07;1.97;;;9.50;99.90;;;;;;5030937;28;20112;-83
2021/11/02 00:26:05;;;;;;;5.90;2.30;;;9.50;99.90;;;;;;5030899;28;20064;-84
2021/11/02 00:28:33;;;;;;;10.50;2.33;;;9.50;99.90;;;;;;5014421;28;20032;-83
2021/11/02 00:30:59;;;;;;;5.87;2.47;;;9.40;99.90;;;;;;5046329;28;20517;-85
2021/11/02 00:33:24;;;;;;;9.13;2.30;;;9.40;99.90;;;;;;5014077;28;20033;-84
2021/11/02 00:35:53;;;;;;;6.47;2.10;;;9.40;99.90;;;;;;5013932;28;20211;-83
2021/11/02 00:38:19;;;;;;;5.13;1.93;;;9.40;99.90;;;;;;5030574;28;20021;-83
2021/11/02 00:40:46;;;;;;;9.70;2.80;;;9.40;99.90;;;;;;5013214;28;20091;-84
2021/11/02 00:43:12;;;;;;;8.83;2.33;;;9.40;99.90;;;;;;5030258;28;20320;-83
2021/11/02 00:45:41;;;;;;;7.40;2.40;;;9.40;99.90;;;;;;5013860;28;20037;-85
2021/11/02 00:48:12;;;;;;;7.30;2.50;;;9.40;99.90;;;;;;5030755;28;20486;-84
2021/11/02 00:50:40;;;;;;;5.83;1.83;;;9.30;99.90;;;;;;5029818;28;20115;-84
2021/11/02 00:53:06;;;;;;;9.17;2.50;;;9.30;99.90;;;;;;5047214;28;20048;-84
2021/11/02 00:55:33;;;;;;;6.20;2.10;;;9.40;99.90;;;;;;5013848;28;20479;-83
2021/11/02 00:58:02;;;;;;;8.33;2.20;;;9.30;99.90;;;;;;5013940;28;20120;-84
2021/11/02 01:00:28;;;;;;;8.95;2.45;;;9.20;99.90;;;;;;5029641;28;20041;-84
2021/11/02 01:02:54;;;;;;;11.57;2.43;;;9.20;99.90;;;;;;5031576;28;20029;-84
2021/11/02 01:05:21;;;;;;;11.23;2.60;;;9.20;99.90;;;;;;5046574;28;20080;-84
2021/11/02 01:07:47;;;;;;;7.60;2.50;;;9.20;99.90;;;;;;5013162;28;20025;-83
2021/11/02 01:10:17;;;;;;;11.33;2.63;;;9.20;99.90;;;;;;5029436;28;20056;-85
2021/11/02 01:12:49;;;;;;;8.90;2.53;;;9.10;99.90;;;;;;5014716;28;20030;-84
2021/11/02 01:15:18;;;;;;;8.73;2.33;;;9.10;99.90;;;;;;5030093;28;20475;-83
2021/11/02 01:17:45;;;;;;;7.03;2.53;;;9.10;99.90;;;;;;5013230;28;20038;-84
2021/11/02 01:20:13;;;;;;;7.67;1.90;;;9.10;99.90;;;;;;5013145;28;20025;-83
2021/11/02 01:22:42;;;;;;;5.47;2.20;;;9.20;99.90;;;;;;5030192;28;20033;-83
2021/11/02 01:25:09;;;;;;;9.55;2.40;;;9.20;99.90;;;;;;5013886;28;20030;-83
2021/11/02 01:27:37;;;;;;;9.97;2.87;;;9.20;99.90;;;;;;5013793;28;20368;-84
2021/11/02 01:30:04;;;;;;;10.10;2.60;;;9.30;99.90;;;;;;5029368;28;20029;-83
2021/11/02 01:32:31;;;;;;;7.27;2.33;;;9.30;99.90;;;;;;5029651;28;20098;-83
2021/11/02 01:34:57;;;;;;;9.00;2.40;;;9.40;99.90;;;;;;5030138;28;20554;-83
2021/11/02 01:37:24;;;;;;;7.63;2.30;;;9.40;99.90;;;;;;5014141;28;20029;-84
2021/11/02 01:39:53;;;;;;;;;;;9.50;99.90;;;;;;5029838;28;20351;-83
2021/11/02 01:42:22;;;;;;;8.70;2.37;;;9.50;99.90;;;;;;5030112;28;19909;-83
2021/11/02 01:44:48;;;;;;;;;;;9.40;99.90;;;;;;5030457;28;20097;-84
2021/11/02 01:47:17;;;;;;;6.80;2.30;;;9.50;99.90;;;;;;5013983;28;20500;-83
2021/11/02 01:49:44;;;;;;;8.73;3.33;;;9.60;99.90;;;;;;5029486;28;20033;-83
2021/11/02 01:52:10;;;;;;;8.67;2.40;;;9.50;99.90;;;;;;5014129;28;20030;-83
2021/11/02 01:54:37;;;;;;;8.70;2.20;;;9.60;99.90;;;;;;5014579;28;20103;-83
2021/11/02 01:57:04;;;;;;;7.13;2.50;;;9.60;99.90;;;;;;5031055;28;20035;-84
2021/11/02 01:59:33;;;;;;;5.50;2.10;;;9.60;99.90;;;;;;5030461;28;20033;-84
2021/11/02 02:02:29;;;;;;;7.13;2.20;;;9.60;99.90;;;;;;5031154;28;20061;-84
2021/11/02 02:05:10;;;;;;;12.87;3.00;;;9.50;99.90;;;;;;5031031;28;20057;-84
2021/11/02 02:07:50;;;;;;;9.00;3.00;;;9.40;99.90;;;;;;5015411;28;20458;-83
2021/11/02 02:10:26;;;;;;;8.17;2.87;;;9.30;99.90;;;;;;5013574;28;20056;-83
2021/11/02 02:13:28;;;;;;;8.67;2.73;;;9.30;99.90;;;;;;5014284;28;20099;-83
2021/11/02 02:16:05;;;;;;;6.70;2.23;;;9.20;99.90;;;;;;5014540;28;20033;-83
2021/11/02 02:18:49;;;;;;;8.07;2.40;;;9.20;99.90;;;;;;5014989;28;20033;-83
2021/11/02 02:21:36;;;;;;;6.83;2.20;;;9.20;99.90;;;;;;5015025;28;20481;-83
2021/11/02 02:24:36;;;;;;;5.83;2.27;;;9.10;99.90;;;;;;5015714;28;20042;-83
2021/11/02 02:27:11;;;;;;;8.27;2.87;;;9.10;99.90;;;;;;5016515;28;20390;-83
2021/11/02 02:29:45;;;;;;;5.93;2.08;;;9.00;99.90;;;;;;5032460;28;20034;-84
2021/11/02 02:32:16;;;;;;;10.13;2.40;;;9.00;99.90;;;;;;5035474;28;20121;-83
2021/11/02 02:34:49;;;;;;;6.73;2.10;;;9.00;99.90;;;;;;5035649;28;20432;-84
2021/11/02 02:37:20;;;;;;;5.50;2.10;;;8.90;99.90;;;;;;5035693;28;20026;-83
2021/11/02 02:39:56;;;;;;;6.10;2.38;;;8.90;99.90;;;;;;5035073;28;20040;-83
2021/11/02 02:42:24;;;;;;;;;;;8.80;99.90;;;;;;5019819;28;20033;-83
2021/11/02 02:44:51;;;;;;;7.47;2.60;;;8.90;99.90;;;;;;5019644;28;19908;-83
2021/11/02 02:47:20;;;;;;;9.65;2.60;;;9.00;99.90;;;;;;5035574;28;20045;-83
2021/11/02 02:49:49;;;;;;;6.33;2.23;;;9.00;99.90;;;;;;5019056;28;20064;-84
2021/11/02 02:52:16;;;;;;;7.30;2.23;;;9.00;99.90;;;;;;5036253;28;20025;-85
2021/11/02 02:54:49;;;;;;;8.83;2.40;;;9.00;99.90;;;;;;5036361;28;20025;-85
2021/11/02 02:57:20;;;;;;;10.83;2.40;;;9.00;99.90;;;;;;5019548;28;20049;-84
2021/11/02 02:59:47;;;;;;;7.63;2.20;;;9.00;99.90;;;;;;5019547;28;20037;-83
2021/11/02 03:02:14;;;;;;;5.80;2.37;;;9.00;99.90;;;;;;5020017;28;20025;-83
2021/11/02 03:04:44;;;;;;;8.03;2.33;;;9.00;99.90;;;;;;5037051;28;20417;-84
2021/11/02 03:07:11;;;;;;;5.53;2.43;;;9.00;99.90;;;;;;5035379;28;20034;-84
2021/11/02 03:09:40;;;;;;;9.13;2.20;;;9.00;99.90;;;;;;5036415;28;20060;-84
2021/11/02 03:12:06;;;;;;;10.32;2.20;;;9.00;99.90;;;;;;5020719;28;20147;-83
2021/11/02 03:17:26;;;;;;;;;;;9.10;99.90;;;;;;5037422;28;20501;-83
2021/11/02 03:45:10;;;;;;;4.63;2.33;;;8.90;99.90;;;;;;5033034;28;20034;-83
2021/11/02 03:51:46;;;;;;;5.57;1.80;;;8.90;99.90;;;;;;5030708;28;20037;-83
2021/11/02 05:07:22;;;;;;;6.77;2.07;;;8.40;99.90;;;;;;5029751;28;20025;-84
2021/11/02 05:10:08;;;;;;;5.87;1.77;;;8.40;99.90;;;;;;5029630;28;20121;-84
2021/11/02 05:13:24;;;;;;;7.27;2.00;;;8.40;99.90;;;;;;5031411;28;20057;-85
2021/11/02 05:49:33;;;;;;;5.07;1.90;;;8.50;99.90;;;;;;5049134;28;20029;-85
2021/11/02 05:52:32;;;;;;;9.90;2.73;;;8.40;99.90;;;;;;5067879;28;20055;-84
2021/11/02 06:00:26;;;;;;;6.17;2.73;;;8.50;99.90;;;;;;5065556;28;20033;-84
2021/11/02 06:09:00;;;;;;;6.93;2.47;;;8.40;99.90;;;;;;5070067;28;20095;-84
2021/11/02 06:23:26;;;;;;;7.68;2.15;;;8.70;99.90;;;;;;5054985;28;20489;-84
2021/11/02 06:28:50;;;;;;;10.27;2.20;;;8.70;99.90;;;;;;5055061;28;20041;-84
2021/11/02 06:31:26;;;;;;;4.90;2.40;;;8.80;99.90;;;;;;5036527;28;20056;-84
2021/11/02 08:47:15;;;;;;;4.93;1.90;;;10.00;99.90;;;;;;4972623;28;20035;-82
2021/11/02 08:49:45;;;;;;;6.33;2.80;;;10.10;99.90;;;;;;4955570;28;20039;-81
2021/11/02 08:52:12;;;;;;;7.80;2.20;;;10.00;99.90;;;;;;4971514;28;20042;-81
2021/11/02 08:54:41;;;;;;;6.17;2.47;;;10.10;99.90;;;;;;4971998;28;20547;-81
2021/11/02 08:57:07;;;;;;;6.18;1.77;;;10.10;99.90;;;;;;4971308;28;20507;-82
2021/11/02 08:59:33;;;;;;;5.70;1.90;;;10.10;99.90;;;;;;4955383;28;20030;-82
2021/11/02 09:02:02;;;;;;;5.43;2.10;;;10.10;99.90;;;;;;4955468;28;20034;-82
2021/11/02 09:04:31;;;;;;;6.47;1.98;;;10.10;99.90;;;;;;4955665;28;20023;-80
2021/11/02 09:07:01;;;;;;;6.13;1.85;;;10.10;99.90;;;;;;4974888;28;20113;-82
2021/11/02 09:09:30;;;;;;;;;;;10.20;99.90;;;;;;4957470;28;20113;-81
2021/11/02 09:12:00;;;;;;;5.80;1.75;;;10.10;99.90;;;;;;4940808;28;20383;-81
2021/11/02 09:14:30;;;;;;;5.93;1.70;;;10.20;99.90;;;;;;4957317;28;20028;-82
2021/11/02 09:16:57;;;;;;;7.03;1.27;;;10.20;99.90;;;;;;4957033;28;20041;-82
2021/11/02 09:19:23;;;;;;;7.03;2.10;;;10.20;99.90;;;;;;4956731;28;20081;-81
2021/11/02 09:21:49;;;;;;;5.37;1.87;;;10.20;99.90;;;;;;4974997;28;20126;-82
2021/11/02 09:24:16;;;;;;;8.93;4.10;;;10.20;99.90;;;;;;4941599;28;20038;-82
2021/11/02 09:26:42;;;;;;;6.00;2.53;;;10.30;99.90;;;;;;4974150;28;20026;-82
2021/11/02 09:29:10;;;;;;;10.53;2.70;;;10.30;99.90;;;;;;4974235;28;20038;-82
2021/11/02 09:31:36;;;;;;;7.70;2.10;;;10.30;99.90;;;;;;4974040;28;20054;-82
2021/11/02 09:34:02;;;;;;;4.97;1.70;;;10.30;99.90;;;;;;4957786;28;20073;-82
2021/11/02 09:36:52;;;;;;;4.10;1.97;;;10.30;99.90;;;;;;4974706;28;20509;-82
2021/11/02 09:39:20;;;;;;;10.83;2.63;;;10.30;99.90;;;;;;4974041;28;20031;-82
2021/11/02 09:42:26;;;;;;;5.60;1.80;;;10.30;99.90;;;;;;4956167;28;20034;-82
2021/11/02 09:45:12;;;;;;;6.13;1.80;;;10.40;99.90;;;;;;4957435;28;20031;-81
2021/11/02 09:47:59;;;;;;;7.77;2.20;;;10.40;99.90;;;;;;4941754;28;20034;-82
2021/11/02 09:50:27;;;;;;;5.53;1.90;;;10.40;99.90;;;;;;4973641;28;20039;-82
2021/11/02 09:53:15;;;;;;;8.07;2.00;;;10.40;99.90;;;;;;4974271;28;20031;-81
2021/11/02 09:56:11;;;;;;;6.27;2.20;;;10.40;99.90;;;;;;4958413;28;20093;-85
2021/11/02 09:59:11;;;;;;;9.27;2.40;;;10.50;99.90;;;;;;4960164;28;20518;-84
2021/11/02 10:02:07;;;;;;;4.77;1.80;;;10.50;99.90;;;;;;4957977;28;20038;-83
2021/11/02 10:04:52;;;;;;;4.40;1.90;;;10.50;99.90;;;;;;4974109;28;20030;-82
2021/11/02 10:07:50;;;;;;;6.83;1.87;;;10.40;99.90;;;;;;4973061;28;20043;-82
2021/11/02 10:10:25;;;;;;;6.57;2.17;;;10.50;99.90;;;;;;4948348;28;20042;-82
2021/11/02 10:12:57;;;;;;;5.60;2.00;;;10.50;99.90;;;;;;4955276;28;20142;-83
2021/11/02 10:15:44;;;;;;;5.43;1.83;;;10.50;99.90;;;;;;4979205;28;20029;-82
2021/11/02 10:18:38;;;;;;;5.63;2.30;;;10.60;99.90;;;;;;4978079;28;20034;-82
2021/11/02 10:21:32;;;;;;;4.37;1.57;;;10.60;99.90;;;;;;5004789;28;20034;-82
2021/11/02 10:24:28;;;;;;;7.07;2.37;;;10.60;99.90;;;;;;4958144;28;20031;-83
2021/11/02 10:27:03;;;;;;;4.47;2.20;;;10.60;99.90;;;;;;4989613;28;20065;-82
2021/11/02 10:29:52;;;;;;;6.27;2.53;;;10.60;99.90;;;;;;4974493;28;20101;-82
2021/11/02 10:32:24;;;;;;;9.87;2.40;;;10.60;99.90;;;;;;4959004;28;20037;-82
2021/11/02 10:35:25;;;;;;;6.07;2.03;;;10.60;99.90;;;;;;4958996;28;20122;-81
2021/11/02 10:37:54;;;;;;;6.00;2.13;;;10.60;99.90;;;;;;4959151;28;20463;-84
2021/11/02 10:40:25;;;;;;;9.20;2.63;;;10.60;99.90;;;;;;4974148;28;20474;-84
2021/11/02 10:43:16;;;;;;;6.23;2.07;;;10.60;99.90;;;;;;4974634;28;20023;-84
2021/11/02 10:45:54;;;;;;;4.23;2.23;;;10.60;99.90;;;;;;4974701;28;20031;-84
2021/11/02 10:48:30;;;;;;;5.57;2.00;;;10.70;99.90;;;;;;4990807;28;20514;-84
2021/11/02 10:51:05;;;;;;;7.03;2.27;;;10.70;99.90;;;;;;4975375;28;20085;-84
2021/11/02 10:53:37;;;;;;;6.57;2.53;;;10.70;99.90;;;;;;4960731;28;20456;-85
2021/11/02 10:56:38;;;;;;;7.07;2.37;;;10.70;99.90;;;;;;4960843;28;20537;-85
2021/11/02 10:59:15;;;;;;;5.07;2.00;;;10.80;99.90;;;;;;4961058;28;20053;-84
2021/11/02 11:01:42;;;;;;;7.80;2.50;;;10.80;99.90;;;;;;4976437;28;20125;-84
2021/11/02 11:04:12;;;;;;;7.00;2.20;;;10.80;99.90;;;;;;4961302;28;20101;-84
2021/11/02 11:06:42;;;;;;;105.43;7.53;;;10.80;99.90;;;;;;4994765;28;20478;-84
2021/11/02 11:09:10;;;;;;;;;;;10.90;99.90;;;;;;4961573;28;20060;-84
2021/11/02 11:11:41;;;;;;;4.67;2.30;;;11.00;99.90;;;;;;4961628;28;19906;-84
2021/11/02 11:14:13;;;;;;;6.43;2.77;;;11.00;99.90;;;;;;4977424;28;20031;-84
2021/11/02 11:16:46;;;;;;;6.87;2.80;;;11.00;99.90;;;;;;4976918;28;20204;-84
2021/11/02 11:19:30;;;;;;;9.47;2.80;;;11.00;99.90;;;;;;4960952;28;20034;-84
2021/11/02 11:22:00;;;;;;;5.80;2.70;;;10.90;99.90;;;;;;4976752;28;20027;-83
2021/11/02 11:24:35;;;;;;;6.53;2.60;;;10.80;99.90;;;;;;4994483;28;20033;-84
2021/11/02 11:27:09;;;;;;;6.23;2.70;;;10.80;99.90;;;;;;4960393;28;20614;-84
2021/11/02 11:29:41;;;;;;;10.60;3.40;;;10.80;99.90;;;;;;4960392;28;20073;-84
2021/11/02 11:32:07;;;;;;;8.47;2.77;;;10.70;99.90;;;;;;4960534;28;20041;-84
2021/11/02 11:34:36;;;;;;;6.70;2.97;;;10.60;99.90;;;;;;4960618;28;20034;-84
2021/11/02 11:37:06;;;;;;;6.20;2.70;;;10.60;99.90;;;;;;4976457;28;20040;-84
2021/11/02 11:39:36;;;;;;;5.27;3.37;;;10.50;99.90;;;;;;4960607;28;20034;-84
2021/11/02 11:42:02;;;;;;;5.53;2.97;;;10.50;99.90;;;;;;4960374;28;20554;-84
2021/11/02 11:44:29;;;;;;;6.60;3.23;;;10.40;99.90;;;;;;4994461;28;20026;-83
2021/11/02 11:47:12;;;;;;;6.07;3.40;;;10.40;99.90;;;;;;4994171;28;20405;-84
2021/11/02 11:49:40;;;;;;;7.97;4.10;;;10.40;99.90;;;;;;5012693;28;20040;-83
2021/11/02 11:52:08;;;;;;;9.10;3.83;;;10.40;99.90;;;;;;4995463;28;20432;-84
2021/11/02 11:55:03;;;;;;;8.03;3.73;;;10.40;99.90;;;;;;4979459;28;20238;-83
2021/11/02 11:57:32;;;;;;;7.07;2.90;;;10.50;99.90;;;;;;5010608;28;20042;-83
2021/11/02 12:00:08;;;;;;;7.07;2.90;;;10.50;99.90;;;;;;4977644;28;20145;-84
2021/11/02 12:03:14;;;;;;;10.37;3.30;;;10.50;99.90;;;;;;4994379;28;20045;-84
2021/11/02 12:05:47;;;;;;;8.50;3.30;;;10.50;99.90;;;;;;4995232;28;20029;-84
2021/11/02 12:08:36;;;;;;;8.00;3.20;;;10.60;99.90;;;;;;4995715;28;20033;-84
2021/11/02 12:11:04;;;;;;;6.83;2.70;;;10.60;99.90;;;;;;4978710;28;20145;-84
2021/11/02 12:13:38;;;;;;;8.23;2.80;;;10.60;99.90;;;;;;4995717;28;20112;-84
2021/11/02 12:16:19;;;;;;;6.97;2.00;;;10.70;99.90;;;;;;4979133;28;20080;-83
2021/11/02 12:18:51;;;;;;;4.73;1.77;;;10.70;99.90;;;;;;4979027;28;20037;-84
2021/11/02 12:21:19;;;;;;;4.30;1.80;;;10.80;99.90;;;;;;4978680;28;20038;-85
2021/11/02 12:23:49;;;;;;;4.43;2.03;;;10.90;99.90;;;;;;4995141;28;20022;-85
2021/11/02 12:26:15;;;;;;;3.67;1.37;;;11.10;99.90;;;;;;4995548;28;20022;-85
2021/11/02 12:28:43;;;;;;;2.70;1.40;;;11.10;99.90;;;;;;4994860;28;20505;-85
2021/11/02 12:31:17;;;;;;;4.27;1.20;;;11.10;99.90;;;;;;4977634;28;20124;-85
2021/11/02 12:33:49;;;;;;;7.50;1.40;;;11.00;99.90;;;;;;4994296;28;20037;-85
2021/11/02 12:36:21;;;;;;;5.23;1.67;;;11.00;99.90;;;;;;4978078;28;20034;-85
2021/11/02 12:38:48;;;;;;;4.07;1.30;;;11.00;99.90;;;;;;4992192;28;20121;-85
2021/11/02 12:41:25;;;;;;;5.43;2.00;;;11.00;99.90;;;;;;4958328;28;20100;-85
2021/11/02 12:44:24;;;;;;;4.90;2.07;;;10.90;99.90;;;;;;4976873;28;20129;-85
2021/11/02 12:46:52;;;;;;;5.88;2.78;;;10.90;99.90;;;;;;4983328;28;20128;-86
2021/11/02 12:49:41;;;;;;;5.53;1.67;;;11.00;99.90;;;;;;5012056;28;20022;-84
2021/11/02 12:52:09;;;;;;;7.60;1.95;;;10.90;99.90;;;;;;4985427;28;20034;-84
2021/11/02 12:54:38;;;;;;;3.67;1.60;;;11.00;99.90;;;;;;4980903;28;20113;-84
2021/11/02 12:57:12;;;;;;;3.10;1.50;;;11.00;99.90;;;;;;4982158;28;20499;-84
2021/11/02 12:59:51;;;;;;;5.10;1.53;;;11.00;99.90;;;;;;4997243;28;20030;-84
2021/11/02 13:02:37;;;;;;;5.90;2.10;;;11.00;99.90;;;;;;4996079;28;20108;-84
2021/11/02 13:05:06;;;;;;;5.57;1.70;;;11.00;99.90;;;;;;4981497;28;20053;-84
2021/11/02 13:07:38;;;;;;;5.32;1.65;;;11.00;99.90;;;;;;4981628;28;20095;-84
2021/11/02 13:10:18;;;;;;;5.57;1.47;;;11.10;99.90;;;;;;5015453;28;20030;-83
2021/11/02 13:12:48;;;;;;;2.30;1.40;;;11.10;99.90;;;;;;5000913;23;20107;-84
2021/11/02 13:15:14;;;;;;;5.27;1.60;;;11.10;99.90;;;;;;5015776;28;20041;-85
2021/11/02 13:17:43;;;;;;;4.50;1.30;;;11.10;99.90;;;;;;5015637;28;20153;-84
2021/11/02 13:20:12;;;;;;;6.03;1.50;;;11.20;99.90;;;;;;5015012;28;20039;-83
2021/11/02 13:22:48;;;;;;;4.40;1.53;;;11.10;99.90;;;;;;5023290;28;20029;-84
2021/11/02 13:25:22;;;;;;;5.13;1.83;;;11.20;99.90;;;;;;5035637;28;20102;-84
2021/11/02 13:27:53;;;;;;;4.87;1.50;;;11.20;99.90;;;;;;5035529;28;20609;-84
2021/11/02 13:30:39;;;;;;;4.87;1.50;;;11.20;99.90;;;;;;5035202;28;20029;-84
2021/11/02 13:33:12;;;;;;;6.23;1.83;;;11.20;99.90;;;;;;5035333;28;20033;-84
2021/11/02 13:35:58;;;;;;;5.17;1.70;;;11.20;99.90;;;;;;5035539;28;20037;-84
2021/11/02 13:38:31;;;;;;;3.53;1.53;;;11.20;99.90;;;;;;5035643;28;20363;-84
2021/11/02 13:41:11;;;;;;;3.63;1.50;;;11.20;99.90;;;;;;5034506;28;20032;-84
2021/11/02 13:43:39;;;;;;;3.17;1.40;;;11.20;99.90;;;;;;5035132;28;20182;-83
2021/11/02 13:46:07;;;;;;;2.87;1.43;;;11.10;99.90;;;;;;5035465;28;20059;-84
2021/11/02 13:48:34;;;;;;;4.80;1.65;;;11.10;99.90;;;;;;5018834;28;20031;-84
2021/11/02 13:51:02;;;;;;;5.57;1.93;;;11.10;99.90;;;;;;5034624;28;20086;-84
2021/11/02 13:53:32;;;;;;;4.03;1.70;;;11.10;99.90;;;;;;5034790;28;20478;-84
2021/11/02 13:55:58;;;;;;;4.47;1.60;;;11.10;99.90;;;;;;5035117;28;20033;-83
2021/11/02 13:58:24;;;;;;;4.60;1.67;;;11.10;99.90;;;;;;5035358;28;20539;-83
2021/11/02 14:00:50;;;;;;;4.90;1.50;;;11.10;99.90;;;;;;5052733;28;20040;-84
2021/11/02 14:03:23;;;;;;;4.77;1.60;;;11.00;99.90;;;;;;5034647;28;20029;-84
2021/11/02 14:05:51;;;;;;;3.50;1.47;;;11.00;99.90;;;;;;5035289;28;20032;-84
2021/11/02 14:08:19;;;;;;;3.67;1.80;;;11.00;99.90;;;;;;5018456;28;20056;-84
2021/11/02 14:10:56;;;;;;;4.30;2.13;;;11.10;99.90;;;;;;5034292;28;20029;-84
2021/11/02 14:13:40;;;;;;;6.83;1.90;;;11.10;99.90;;;;;;5034785;28;20162;-84
2021/11/02 14:16:06;;;;;;;4.30;1.80;;;11.00;99.90;;;;;;5018664;28;20047;-84
2021/11/02 14:18:33;;;;;;;3.50;1.50;;;11.10;99.90;;;;;;5034697;28;20481;-83
2021/11/02 14:20:58;;;;;;;4.43;1.47;;;11.00;99.90;;;;;;5017432;28;20420;-84
2021/11/02 14:23:30;;;;;;;4.07;1.77;;;11.00;99.90;;;;;;5034646;28;20021;-83
2021/11/02 14:26:25;;;;;;;3.87;1.40;;;11.00;99.90;;;;;;5036938;28;20088;-84
2021/11/02 14:28:59;;;;;;;6.23;1.80;;;11.10;99.90;;;;;;5038751;28;20029;-84
2021/11/02 14:31:34;;;;;;;3.47;1.57;;;11.10;99.90;;;;;;5038400;28;20054;-85
2021/11/02 14:34:01;;;;;;;5.70;1.80;;;11.10;99.90;;;;;;5038411;28;20035;-84
2021/11/02 14:36:38;;;;;;;3.53;1.60;;;11.10;99.90;;;;;;5038670;28;20515;-84
2021/11/02 14:39:06;;;;;;;4.40;1.70;;;11.10;99.90;;;;;;5022164;28;20041;-84
2021/11/02 14:41:34;;;;;;;4.00;1.50;;;11.00;99.90;;;;;;5039293;28;20029;-84
2021/11/02 14:44:15;;;;;;;4.60;1.83;;;11.00;99.90;;;;;;5038788;28;20071;-85
2021/11/02 14:46:55;;;;;;;3.93;1.83;;;11.00;99.90;;;;;;5038545;28;20052;-84
2021/11/02 14:49:30;;;;;;;4.40;1.73;;;11.00;99.90;;;;;;5037801;28;20436;-84
2021/11/02 14:52:00;;;;;;;6.47;1.70;;;11.00;99.90;;;;;;5038527;28;20081;-84
2021/11/02 14:54:30;;;;;;;6.10;2.00;;;11.00;99.90;;;;;;5021930;28;20035;-84
2021/11/02 14:57:18;;;;;;;3.87;2.07;;;11.00;99.90;;;;;;5038239;28;20485;-85
2021/11/02 14:59:51;;;;;;;5.43;1.75;;;10.90;99.90;;;;;;5012153;28;20041;-83
2021/11/02 15:02:30;;;;;;;3.87;1.73;;;10.90;99.90;;;;;;5038261;28;20033;-84
2021/11/02 15:04:58;;;;;;;4.30;1.70;;;10.90;99.90;;;;;;5021833;28;20032;-84
2021/11/02 15:07:26;;;;;;;3.42;1.80;;;10.90;99.90;;;;;;5056039;28;20025;-84
2021/11/02 15:09:52;;;;;;;4.73;1.57;;;10.90;99.90;;;;;;5037536;28;20021;-85
2021/11/02 15:12:18;;;;;;;5.50;1.67;;;10.90;99.90;;;;;;5021678;28;20420;-84
2021/11/02 15:14:46;;;;;;;5.40;1.43;;;10.90;99.90;;;;;;5038131;28;20082;-84
2021/11/02 15:17:12;;;;;;;4.17;1.47;;;10.80;99.90;;;;;;5038239;28;20029;-83
2021/11/02 15:19:40;;;;;;;3.50;1.90;;;10.90;99.90;;;;;;5037634;28;20033;-84
2021/11/02 15:22:16;;;;;;;3.30;1.70;;;10.80;99.90;;;;;;5056445;28;20071;-84
2021/11/02 15:24:49;;;;;;;3.00;1.70;;;10.80;99.90;;;;;;5038583;28;20025;-85
2021/11/02 15:27:16;;;;;;;3.97;1.60;;;10.80;99.90;;;;;;5037925;28;20074;-84
2021/11/02 15:30:00;;;;;;;4.13;1.87;;;10.80;99.90;;;;;;5037091;28;20037;-83
2021/11/02 15:32:34;;;;;;;3.37;1.60;;;10.80;99.90;;;;;;5037291;28;20473;-83
2021/11/02 15:35:03;;;;;;;4.57;1.63;;;10.70;99.90;;;;;;5037243;28;20382;-84
2021/11/02 15:37:34;;;;;;;3.88;1.58;;;10.80;99.90;;;;;;5054413;28;20370;-84
2021/11/02 15:40:04;;;;;;;2.97;1.70;;;10.70;99.90;;;;;;5036339;28;20040;-84
2021/11/02 15:42:35;;;;;;;3.63;1.77;;;10.70;99.90;;;;;;5036776;28;20033;-84
2021/11/02 15:45:07;;;;;;;7.47;2.40;;;10.70;99.90;;;;;;5037110;28;20469;-84
2021/11/02 15:47:37;;;;;;;6.27;1.90;;;10.70;99.90;;;;;;5037066;28;20553;-84
2021/11/02 15:50:09;;;;;;;4.63;1.73;;;10.60;99.90;;;;;;5020139;28;20534;-85
2021/11/02 15:52:36;;;;;;;6.27;2.80;;;10.60;99.90;;;;;;5036886;28;20037;-84
2021/11/02 15:55:13;;;;;;;4.30;1.63;;;10.60;99.90;;;;;;5036728;28;20037;-83
2021/11/02 15:57:48;;;;;;;7.03;2.50;;;10.60;99.90;;;;;;5020941;28;20040;-84
2021/11/02 16:00:16;;;;;;;4.63;1.93;;;10.50;99.90;;;;;;5036493;28;20420;-84
2021/11/02 16:02:46;;;;;;;6.80;2.03;;;10.50;99.90;;;;;;5036923;28;20031;-84
2021/11/02 16:05:16;;;;;;;5.00;1.97;;;10.50;99.90;;;;;;5037075;28;20025;-85
2021/11/02 16:07:42;;;;;;;5.17;1.60;;;10.50;99.90;;;;;;5036753;28;20463;-84
2021/11/02 16:10:08;;;;;;;3.17;1.70;;;10.40;99.90;;;;;;5036379;28;20056;-85
2021/11/02 16:12:36;;;;;;;2.60;1.43;;;10.40;99.90;;;;;;5036766;28;20459;-83
2021/11/02 16:15:15;;;;;;;2.43;1.10;;;10.40;99.90;;;;;;5037393;28;20029;-84
2021/11/02 16:17:49;;;;;;;2.87;1.20;;;10.40;99.90;;;;;;5037717;28;20444;-85
2021/11/02 16:20:21;;;;;;;2.43;1.30;;;10.40;99.90;;;;;;5036897;28;20029;-84
2021/11/02 16:22:58;;;;;;;3.67;1.17;;;10.40;99.90;;;;;;5037149;28;20123;-84
2021/11/02 16:25:31;;;;;;;2.97;1.20;;;10.30;99.90;;;;;;5037408;28;20116;-85
2021/11/02 16:28:03;;;;;;;1.53;0.90;;;10.30;99.90;;;;;;5054772;28;20065;-84
2021/11/02 16:30:41;;;;;;;4.43;1.30;;;10.30;99.90;;;;;;5035847;28;20025;-85
2021/11/02 16:33:08;;;;;;;3.70;1.40;;;10.30;99.90;;;;;;5035806;28;20481;-83
2021/11/02 16:35:53;;;;;;;3.30;1.00;;;10.30;99.90;;;;;;5036218;28;20050;-84
2021/11/02 16:38:34;;;;;;;2.63;1.30;;;10.30;99.90;;;;;;5036210;28;20426;-84
2021/11/02 16:41:06;;;;;;;2.90;1.50;;;10.30;99.90;;;;;;5036100;28;20436;-84
2021/11/02 16:43:55;;;;;;;4.13;1.80;;;10.30;99.90;;;;;;5036247;28;20124;-84
2021/11/02 16:46:32;;;;;;;4.80;1.90;;;10.30;99.90;;;;;;5036043;28;20107;-83
2021/11/02 16:49:21;;;;;;;4.03;2.10;;;10.30;99.90;;;;;;5035408;28;20040;-84
2021/11/02 16:51:53;;;;;;;5.30;2.57;;;10.30;99.90;;;;;;5036109;28;20043;-84
2021/11/02 16:54:25;;;;;;;5.27;3.10;;;10.30;99.90;;;;;;5036624;28;20029;-84
2021/11/02 16:57:09;;;;;;;8.20;2.90;;;10.30;99.90;;;;;;5036432;28;20546;-84
2021/11/02 16:59:38;;;;;;;6.73;4.23;;;10.30;99.90;;;;;;5035661;28;20063;-84
2021/11/02 17:02:16;;;;;;;5.50;3.92;;;10.30;99.90;;;;;;5036289;28;20512;-84
2021/11/02 17:05:13;;;;;;;7.57;4.83;;;10.20;99.90;;;;;;5036475;28;20077;-84
2021/11/02 17:07:51;;;;;;;6.57;4.20;;;10.20;99.90;;;;;;5036461;28;20032;-85
2021/11/02 17:10:23;;;;;;;6.63;3.27;;;10.20;99.90;;;;;;5035335;28;20139;-84
2021/11/02 17:13:03;;;;;;;5.03;3.20;;;10.20;99.90;;;;;;5036033;28;20033;-84
2021/11/02 17:15:50;;;;;;;4.70;2.80;;;10.20;99.90;;;;;;5036388;28;20025;-85
2021/11/02 17:18:18;;;;;;;6.30;2.57;;;10.20;99.90;;;;;;5020666;28;20497;-85
2021/11/02 17:20:46;;;;;;;7.00;2.80;;;10.20;99.90;;;;;;5058788;28;20560;-85
2021/11/02 17:23:19;;;;;;;4.57;2.93;;;10.10;99.90;;;;;;5042107;28;20564;-85
2021/11/02 17:25:46;;;;;;;5.27;3.37;;;10.10;99.90;;;;;;5043272;28;20033;-85
2021/11/02 17:28:12;;;;;;;5.90;3.30;;;10.10;99.90;;;;;;5023673;28;20066;-83
2021/11/02 17:30:38;;;;;;;5.00;2.83;;;10.00;99.90;;;;;;5038737;28;20056;-85
2021/11/02 17:33:05;;;;;;;5.67;3.17;;;10.00;99.90;;;;;;5040116;28;20040;-84
2021/11/02 17:35:34;;;;;;;7.43;3.57;;;10.00;99.90;;;;;;5039525;28;20033;-84
2021/11/02 17:38:02;;;;;;;5.47;3.30;;;10.00;99.90;;;;;;5037191;28;20094;-84
2021/11/02 17:40:28;;;;;;;5.40;3.50;;;10.00;99.90;;;;;;5021031;28;20071;-84
2021/11/02 17:42:56;;;;;;;5.63;3.47;;;10.00;99.90;;;;;;5055197;28;20029;-84
2021/11/02 17:45:23;;;;;;;8.57;3.73;;;10.00;99.90;;;;;;5037241;28;20044;-85
2021/11/02 17:47:50;;;;;;;8.47;3.80;;;9.90;99.90;;;;;;5020787;28;20267;-84
2021/11/02 17:50:19;;;;;;;7.73;4.10;;;9.90;99.90;;;;;;5036189;28;20024;-84
2021/11/02 17:52:45;;;;;;;6.30;3.70;;;9.90;99.90;;;;;;5036641;28;20036;-85
2021/11/02 17:55:13;;;;;;;6.60;4.00;;;9.90;99.90;;;;;;5037692;28;20036;-85
2021/11/02 17:57:41;;;;;;;7.40;4.67;;;9.90;99.90;;;;;;5038569;28;20037;-85
2021/11/02 18:00:09;;;;;;;10.65;4.75;;;9.80;99.90;;;;;;5024261;28;20025;-84
2021/11/02 18:02:36;;;;;;;7.30;4.63;;;9.80;99.90;;;;;;5041400;28;20084;-84
2021/11/02 18:05:03;;;;;;;6.47;4.27;;;9.80;99.90;;;;;;5040447;28;20115;-84
2021/11/02 18:07:29;;;;;;;9.30;5.30;;;9.80;99.90;;;;;;5040222;28;20029;-84
2021/11/02 18:09:56;;;;;;;8.30;4.77;;;9.80;99.90;;;;;;5039630;28;20025;-84
2021/11/02 18:12:29;;;;;;;9.60;5.63;;;9.80;99.90;;;;;;5040746;28;20032;-84
2021/11/02 18:14:56;;;;;;;9.90;6.13;;;9.80;99.90;;;;;;5041055;28;20119;-84
2021/11/02 18:17:24;;;;;;;9.63;6.00;;;9.80;99.90;;;;;;5039982;28;20029;-83
2021/11/02 18:19:53;;;;;;;8.77;4.80;;;9.80;99.90;;;;;;5039448;28;20029;-83